createdAt,value
2022-10-09T00:01:14.428Z,88.67
2022-10-09T00:03:44.175Z,88.60
2022-10-09T00:06:15.836Z,88.48
2022-10-09T00:08:44.603Z,88.48
2022-10-09T00:11:15.162Z,88.53
2022-10-09T00:13:44.757Z,88.49
2022-10-09T00:16:15.049Z,88.56
2022-10-09T00:18:43.340Z,88.77
2022-10-09T00:21:20.304Z,88.83
2022-10-09T00:23:48.884Z,88.26
2022-10-09T00:26:17.051Z,88.33
2022-10-09T00:28:46.936Z,88.87
2022-10-09T00:31:15.813Z,88.71
2022-10-09T00:33:43.805Z,88.78
2022-10-09T00:36:14.012Z,88.30
2022-10-09T00:38:42.424Z,88.65
2022-10-09T00:41:14.068Z,88.87
2022-10-09T00:43:46.665Z,88.81
2022-10-09T00:46:28.008Z,88.79
2022-10-09T00:49:02.383Z,88.19
2022-10-09T00:51:32.535Z,88.27
2022-10-09T00:54:01.249Z,88.63
2022-10-09T00:56:29.460Z,88.16
2022-10-09T00:58:59.709Z,87.91
2022-10-09T01:01:28.394Z,88.50
2022-10-09T01:03:56.169Z,87.77
2022-10-09T01:06:34.305Z,87.66
2022-10-09T01:09:07.241Z,86.51
2022-10-09T01:11:43.153Z,86.09
2022-10-09T01:14:18.890Z,85.97
2022-10-09T01:16:55.031Z,85.32
2022-10-09T01:19:36.499Z,85.67
2022-10-09T01:22:19.745Z,85.73
2022-10-09T01:24:53.577Z,85.53
2022-10-09T01:27:25.325Z,85.19
2022-10-09T01:29:57.594Z,85.30
2022-10-09T01:32:29.386Z,85.43
2022-10-09T01:34:58.450Z,85.31
2022-10-09T01:37:28.139Z,85.29
2022-10-09T01:39:56.153Z,85.37
2022-10-09T01:42:28.282Z,85.14
2022-10-09T01:44:56.718Z,85.63
2022-10-09T01:47:25.009Z,85.51
2022-10-09T01:49:59.714Z,85.46
2022-10-09T01:52:41.547Z,85.93
2022-10-09T01:55:26.770Z,85.58
2022-10-09T01:58:01.309Z,85.65
2022-10-09T02:00:32.003Z,85.56
2022-10-09T02:02:59.971Z,86.05
2022-10-09T02:05:30.393Z,85.48
2022-10-09T02:07:59.402Z,85.54
2022-10-09T02:10:27.713Z,85.47
2022-10-09T02:12:59.416Z,85.75
2022-10-09T02:15:32.133Z,86.03
2022-10-09T02:18:06.183Z,86.07
2022-10-09T02:20:37.975Z,86.03
2022-10-09T02:23:09.085Z,86.01
2022-10-09T02:25:37.312Z,85.87
2022-10-09T02:28:07.963Z,86.29
2022-10-09T02:30:45.401Z,85.62
2022-10-09T02:33:13.129Z,85.55
2022-10-09T02:35:41.891Z,85.67
2022-10-09T02:38:09.581Z,85.92
2022-10-09T02:40:37.914Z,85.67
2022-10-09T02:43:06.908Z,85.81
2022-10-09T02:45:34.902Z,85.72
2022-10-09T02:48:02.561Z,86.07
2022-10-09T02:50:30.841Z,85.85
2022-10-09T02:52:58.617Z,85.44
2022-10-09T02:55:26.561Z,85.68
2022-10-09T02:57:54.241Z,85.45
2022-10-09T03:00:23.637Z,85.67
2022-10-09T03:02:51.744Z,85.67
2022-10-09T03:05:20.478Z,85.59
2022-10-09T03:07:51.477Z,85.79
2022-10-09T03:10:20.473Z,85.31
2022-10-09T03:12:48.572Z,85.50
2022-10-09T03:15:17.817Z,85.62
2022-10-09T03:17:46.996Z,85.07
2022-10-09T03:20:14.651Z,85.51
2022-10-09T03:22:42.408Z,85.38
2022-10-09T03:25:10.462Z,85.54
2022-10-09T03:27:38.194Z,84.92
2022-10-09T03:30:07.406Z,85.23
2022-10-09T03:32:35.107Z,84.88
2022-10-09T03:35:04.851Z,84.91
2022-10-09T03:37:32.646Z,85.59
2022-10-09T03:40:00.509Z,84.89
2022-10-09T03:42:28.216Z,85.03
2022-10-09T03:44:57.850Z,84.77
2022-10-09T03:47:25.520Z,84.80
2022-10-09T03:49:53.326Z,85.12
2022-10-09T03:52:22.347Z,85.38
2022-10-09T03:54:50.118Z,85.49
2022-10-09T03:57:17.767Z,85.37
2022-10-09T03:59:45.749Z,85.12
2022-10-09T04:02:13.426Z,85.08
2022-10-09T04:04:41.554Z,85.18
2022-10-09T04:07:09.235Z,85.36
2022-10-09T04:09:38.218Z,85.72
2022-10-09T04:12:06.341Z,85.48
2022-10-09T04:14:33.996Z,84.96
2022-10-09T04:17:01.966Z,85.14
2022-10-09T04:19:29.616Z,85.22
2022-10-09T04:21:57.587Z,85.53
2022-10-09T04:24:25.239Z,85.72
2022-10-09T04:26:54.799Z,85.39
2022-10-09T04:29:22.438Z,85.16
2022-10-09T04:31:50.748Z,85.45
2022-10-09T04:34:18.457Z,85.90
2022-10-09T04:36:46.110Z,86.01
2022-10-09T04:39:13.887Z,85.29
2022-10-09T04:41:41.849Z,85.71
2022-10-09T04:44:10.998Z,85.59
2022-10-09T04:46:39.047Z,85.46
2022-10-09T04:49:06.930Z,85.75
2022-10-09T04:51:34.879Z,85.50
2022-10-09T04:54:02.525Z,85.44
2022-10-09T04:56:30.826Z,85.27
2022-10-09T04:58:58.674Z,85.16
2022-10-09T05:01:32.078Z,85.76
2022-10-09T05:04:03.346Z,85.52
2022-10-09T05:06:31.465Z,85.43
2022-10-09T05:08:59.196Z,85.69
2022-10-09T05:11:28.597Z,85.84
2022-10-09T05:13:57.500Z,85.29
2022-10-09T05:16:29.192Z,85.56
2022-10-09T05:18:58.388Z,86.81
2022-10-09T05:21:28.031Z,87.73
2022-10-09T05:23:56.812Z,87.58
2022-10-09T05:26:28.453Z,88.05
2022-10-09T05:28:56.150Z,87.60
2022-10-09T05:31:25.390Z,87.83
2022-10-09T05:33:54.595Z,88.03
2022-10-09T05:36:22.853Z,87.87
2022-10-09T05:38:50.942Z,88.36
2022-10-09T05:41:19.865Z,88.28
2022-10-09T05:43:49.522Z,88.33
2022-10-09T05:46:19.683Z,88.26
2022-10-09T05:48:52.930Z,87.96
2022-10-09T05:51:23.796Z,88.17
2022-10-09T05:53:51.953Z,88.18
2022-10-09T05:56:21.534Z,88.42
2022-10-09T05:58:51.853Z,88.18
2022-10-09T06:01:19.986Z,88.31
2022-10-09T06:03:50.780Z,88.57
2022-10-09T06:06:20.783Z,88.46
2022-10-09T06:08:50.796Z,88.47
2022-10-09T06:11:20.582Z,88.42
2022-10-09T06:13:49.315Z,88.89
2022-10-09T06:16:18.976Z,88.61
2022-10-09T06:18:49.520Z,89.01
2022-10-09T06:21:17.828Z,88.18
2022-10-09T06:23:45.710Z,88.76
2022-10-09T06:26:15.039Z,88.73
2022-10-09T06:28:42.798Z,88.54
2022-10-09T06:31:12.437Z,88.45
2022-10-09T06:33:42.218Z,88.39
2022-10-09T06:36:12.087Z,88.78
2022-10-09T06:38:40.638Z,88.41
2022-10-09T06:41:10.936Z,88.26
2022-10-09T06:43:40.698Z,88.56
2022-10-09T06:46:10.414Z,88.76
2022-10-09T06:48:39.649Z,88.86
2022-10-09T06:51:09.869Z,88.37
2022-10-09T06:53:38.291Z,88.48
2022-10-09T06:56:08.609Z,88.35
2022-10-09T06:58:36.433Z,88.54
2022-10-09T07:01:08.629Z,88.41
2022-10-09T07:03:37.543Z,87.96
2022-10-09T07:06:10.616Z,88.27
2022-10-09T07:08:38.758Z,88.59
2022-10-09T07:11:14.901Z,88.55
2022-10-09T07:13:43.418Z,88.72
2022-10-09T07:16:13.315Z,88.46
2022-10-09T07:18:41.182Z,88.66
2022-10-09T07:21:11.048Z,88.72
2022-10-09T07:23:39.041Z,87.99
2022-10-09T07:26:13.681Z,87.98
2022-10-09T07:28:42.635Z,87.82
2022-10-09T07:31:13.050Z,87.56
2022-10-09T07:33:41.594Z,87.73
2022-10-09T07:36:11.683Z,87.90
2022-10-09T07:38:39.341Z,87.42
2022-10-09T07:41:08.682Z,87.39
2022-10-09T07:43:37.638Z,87.07
2022-10-09T07:46:07.760Z,87.23
2022-10-09T07:48:37.602Z,83.58
2022-10-09T07:51:10.026Z,85.70
2022-10-09T07:53:39.263Z,86.07
2022-10-09T07:56:07.393Z,86.33
2022-10-09T07:58:36.014Z,85.76
2022-10-09T08:01:07.322Z,85.83
2022-10-09T08:03:37.693Z,85.67
2022-10-09T08:06:06.310Z,85.22
2022-10-09T08:08:34.346Z,84.58
2022-10-09T08:11:02.119Z,84.42
2022-10-09T08:13:30.425Z,84.26
2022-10-09T08:16:00.032Z,84.26
2022-10-09T08:18:28.442Z,84.29
2022-10-09T08:21:01.868Z,84.16
2022-10-09T08:23:30.608Z,83.98
2022-10-09T08:25:58.368Z,83.68
2022-10-09T08:28:26.481Z,83.63
2022-10-09T08:30:54.273Z,83.47
2022-10-09T08:33:23.795Z,83.08
2022-10-09T08:35:52.104Z,82.63
2022-10-09T08:38:45.449Z,82.53
2022-10-09T08:41:14.578Z,83.20
2022-10-09T08:43:46.817Z,82.59
2022-10-09T08:46:22.443Z,82.26
2022-10-09T08:48:51.613Z,82.18
2022-10-09T08:51:25.017Z,82.15
2022-10-09T08:54:00.417Z,82.23
2022-10-09T08:56:30.087Z,81.70
2022-10-09T08:58:58.538Z,81.05
2022-10-09T09:01:33.987Z,80.57
2022-10-09T09:04:28.214Z,80.15
2022-10-09T09:07:03.544Z,78.83
2022-10-09T09:09:43.289Z,78.50
2022-10-09T09:12:17.622Z,78.31
2022-10-09T09:15:02.090Z,78.65
2022-10-09T09:17:40.021Z,78.56
2022-10-09T09:20:16.271Z,77.57
2022-10-09T09:22:48.786Z,76.95
2022-10-09T09:25:22.756Z,77.30
2022-10-09T09:27:51.260Z,77.39
2022-10-09T09:30:22.386Z,77.48
2022-10-09T09:32:57.923Z,77.06
2022-10-09T09:35:33.368Z,77.17
2022-10-09T09:38:02.257Z,76.78
2022-10-09T09:40:37.616Z,75.93
2022-10-09T09:43:16.148Z,75.78
2022-10-09T09:45:44.787Z,75.58
2022-10-09T09:48:17.652Z,75.23
2022-10-09T09:50:53.103Z,74.74
2022-10-09T09:53:36.070Z,75.36
2022-10-09T09:56:05.867Z,75.14
2022-10-09T09:58:36.675Z,74.22
2022-10-09T10:01:06.451Z,74.45
2022-10-09T10:03:35.777Z,73.66
2022-10-09T10:06:03.478Z,72.11
2022-10-09T10:08:34.026Z,72.15
2022-10-09T10:11:04.276Z,72.55
2022-10-09T10:13:38.375Z,71.98
2022-10-09T10:16:09.249Z,71.59
2022-10-09T10:18:41.343Z,71.02
2022-10-09T10:21:14.043Z,70.34
2022-10-09T10:23:45.282Z,70.72
2022-10-09T10:26:25.806Z,70.28
2022-10-09T10:29:01.893Z,71.08
2022-10-09T10:31:40.032Z,71.72
2022-10-09T10:34:16.918Z,72.04
2022-10-09T10:37:02.517Z,72.14
2022-10-09T10:39:40.870Z,71.81
2022-10-09T10:42:16.518Z,71.41
2022-10-09T10:44:53.697Z,71.18
2022-10-09T10:47:24.590Z,71.77
2022-10-09T10:49:52.870Z,71.89
2022-10-09T10:52:38.946Z,71.48
2022-10-09T10:55:22.354Z,71.15
2022-10-09T10:57:59.503Z,72.38
2022-10-09T11:00:29.728Z,71.36
2022-10-09T11:03:08.386Z,70.67
2022-10-09T11:05:47.561Z,70.93
2022-10-09T11:08:28.271Z,71.03
2022-10-09T11:11:04.176Z,71.44
2022-10-09T11:13:34.942Z,71.01
2022-10-09T11:16:19.632Z,71.15
2022-10-09T11:19:00.739Z,70.85
2022-10-09T11:21:44.657Z,71.41
2022-10-09T11:24:49.371Z,71.01
2022-10-09T11:27:20.786Z,70.78
2022-10-09T11:29:54.467Z,70.06
2022-10-09T11:32:29.904Z,70.34
2022-10-09T11:35:04.418Z,70.38
2022-10-09T11:37:35.785Z,71.04
2022-10-09T11:40:07.393Z,70.57
2022-10-09T11:42:35.304Z,71.45
2022-10-09T11:45:18.050Z,72.08
2022-10-09T11:47:56.273Z,71.18
2022-10-09T11:50:37.108Z,71.23
2022-10-09T11:53:09.970Z,71.56
2022-10-09T11:55:38.591Z,70.81
2022-10-09T11:58:22.201Z,70.37
2022-10-09T12:00:54.186Z,71.50
2022-10-09T12:03:33.440Z,71.58
2022-10-09T12:06:08.605Z,71.82
2022-10-09T12:08:37.640Z,71.06
2022-10-09T12:11:13.261Z,70.98
2022-10-09T12:13:51.722Z,70.54
2022-10-09T12:16:36.715Z,69.90
2022-10-09T12:19:12.987Z,69.66
2022-10-09T12:21:47.931Z,69.60
2022-10-09T12:24:17.950Z,69.77
2022-10-09T12:26:47.039Z,70.24
2022-10-09T12:29:24.318Z,69.52
2022-10-09T12:31:57.033Z,69.90
2022-10-09T12:34:31.283Z,69.18
2022-10-09T12:37:13.396Z,69.53
2022-10-09T12:39:42.227Z,68.43
2022-10-09T12:42:18.286Z,68.56
2022-10-09T12:44:47.494Z,69.04
2022-10-09T12:47:21.323Z,68.72
2022-10-09T12:49:58.511Z,68.74
2022-10-09T12:52:26.859Z,69.14
2022-10-09T12:54:54.688Z,69.08
2022-10-09T12:57:24.067Z,68.49
2022-10-09T12:59:55.483Z,69.81
2022-10-09T13:02:23.348Z,69.75
2022-10-09T13:05:02.349Z,69.34
2022-10-09T13:07:32.444Z,69.38
2022-10-09T13:10:08.441Z,69.54
2022-10-09T13:12:36.632Z,70.28
2022-10-09T13:15:06.028Z,69.83
2022-10-09T13:17:36.676Z,70.43
2022-10-09T13:20:25.794Z,70.61
2022-10-09T13:22:55.155Z,70.52
2022-10-09T13:25:24.021Z,70.13
2022-10-09T13:27:52.263Z,70.53
2022-10-09T13:30:22.571Z,70.18
2022-10-09T13:32:50.742Z,70.91
2022-10-09T13:35:20.257Z,70.52
2022-10-09T13:37:48.274Z,70.53
2022-10-09T13:40:22.083Z,70.72
2022-10-09T13:42:54.128Z,70.89
2022-10-09T13:45:21.834Z,71.01
2022-10-09T13:47:49.856Z,71.45
2022-10-09T13:50:20.067Z,70.82
2022-10-09T13:52:48.025Z,70.55
2022-10-09T13:55:17.486Z,70.39
2022-10-09T13:57:45.227Z,70.10
2022-10-09T14:00:14.741Z,69.81
2022-10-09T14:02:42.607Z,69.91
2022-10-09T14:05:11.026Z,70.60
2022-10-09T14:07:40.125Z,70.57
2022-10-09T14:10:08.920Z,70.99
2022-10-09T14:12:36.914Z,71.26
2022-10-09T14:15:05.595Z,70.86
2022-10-09T14:17:33.388Z,70.78
2022-10-09T14:20:01.298Z,71.22
2022-10-09T14:22:28.981Z,71.47
2022-10-09T14:24:58.383Z,71.56
2022-10-09T14:27:26.359Z,71.29
2022-10-09T14:29:56.734Z,71.43
2022-10-09T14:32:25.231Z,71.14
2022-10-09T14:34:53.037Z,71.18
2022-10-09T14:37:40.037Z,71.81
2022-10-09T14:40:11.357Z,71.53
2022-10-09T14:42:39.967Z,71.64
2022-10-09T14:45:09.823Z,72.52
2022-10-09T14:47:38.149Z,72.47
2022-10-09T14:50:06.762Z,72.50
2022-10-09T14:52:34.962Z,72.10
2022-10-09T14:55:03.017Z,72.36
2022-10-09T14:57:35.535Z,71.86
2022-10-09T15:00:05.333Z,72.26
2022-10-09T15:02:33.094Z,72.15
2022-10-09T15:05:00.828Z,72.43
2022-10-09T15:07:28.524Z,72.32
2022-10-09T15:09:57.205Z,72.40
2022-10-09T15:12:25.145Z,72.61
2022-10-09T15:14:54.637Z,72.83
2022-10-09T15:17:22.430Z,73.00
2022-10-09T15:19:50.722Z,72.53
2022-10-09T15:22:18.385Z,72.35
2022-10-09T15:24:48.271Z,72.40
2022-10-09T15:27:15.966Z,72.53
2022-10-09T15:29:44.380Z,72.64
2022-10-09T15:32:13.425Z,72.96
2022-10-09T15:34:41.685Z,73.26
2022-10-09T15:37:09.418Z,73.46
2022-10-09T15:39:37.798Z,73.30
2022-10-09T15:42:05.950Z,73.47
2022-10-09T15:44:33.694Z,73.67
2022-10-09T15:47:01.749Z,74.08
2022-10-09T15:49:30.766Z,74.47
2022-10-09T15:51:58.835Z,74.42
2022-10-09T15:54:27.756Z,74.09
2022-10-09T15:56:55.618Z,73.96
2022-10-09T15:59:23.290Z,74.04
2022-10-09T16:01:51.479Z,74.20
2022-10-09T16:04:19.338Z,74.66
2022-10-09T16:06:49.188Z,74.61
2022-10-09T16:09:17.222Z,74.87
2022-10-09T16:11:45.539Z,75.36
2022-10-09T16:14:13.281Z,75.74
2022-10-09T16:16:41.322Z,76.32
2022-10-09T16:19:09.036Z,76.40
2022-10-09T16:21:37.042Z,76.37
2022-10-09T16:24:06.512Z,76.87
2022-10-09T16:26:34.603Z,77.11
2022-10-09T16:29:02.309Z,76.99
2022-10-09T16:31:35.034Z,77.13
2022-10-09T16:34:03.838Z,77.06
2022-10-09T16:36:32.378Z,77.07
2022-10-09T16:39:00.310Z,77.07
2022-10-09T16:41:30.001Z,77.10
2022-10-09T16:44:00.138Z,77.22
2022-10-09T16:46:31.494Z,77.98
2022-10-09T16:49:00.294Z,77.86
2022-10-09T16:51:30.862Z,78.02
2022-10-09T16:54:00.082Z,78.23
2022-10-09T16:56:31.347Z,78.52
2022-10-09T16:59:00.591Z,78.44
2022-10-09T17:01:29.723Z,78.48
2022-10-09T17:03:58.200Z,78.38
2022-10-09T17:06:27.154Z,78.56
2022-10-09T17:08:56.909Z,78.87
2022-10-09T17:11:25.770Z,79.11
2022-10-09T17:13:56.699Z,79.40
2022-10-09T17:16:26.849Z,79.32
2022-10-09T17:18:54.968Z,79.10
2022-10-09T17:21:22.768Z,79.00
2022-10-09T17:23:54.155Z,78.77
2022-10-09T17:26:23.391Z,78.75
2022-10-09T17:28:51.485Z,78.27
2022-10-09T17:31:23.712Z,78.54
2022-10-09T17:33:55.518Z,78.59
2022-10-09T17:36:26.005Z,78.70
2022-10-09T17:38:54.153Z,78.63
2022-10-09T17:41:24.801Z,78.80
2022-10-09T17:43:52.889Z,78.59
2022-10-09T17:46:22.787Z,78.78
2022-10-09T17:48:53.426Z,78.50
2022-10-09T17:51:25.252Z,78.92
2022-10-09T17:53:55.102Z,78.65
2022-10-09T17:56:22.850Z,78.54
2022-10-09T17:58:50.550Z,78.89
2022-10-09T18:01:19.231Z,78.22
2022-10-09T18:03:48.270Z,78.05
2022-10-09T18:06:18.865Z,77.80
2022-10-09T18:08:46.891Z,77.68
2022-10-09T18:11:17.043Z,77.30
2022-10-09T18:13:46.297Z,77.49
2022-10-09T18:16:17.096Z,77.38
2022-10-09T18:18:45.591Z,77.95
2022-10-09T18:21:17.618Z,78.08
2022-10-09T18:23:45.958Z,78.15
2022-10-09T18:26:16.504Z,77.84
2022-10-09T18:28:47.577Z,77.73
2022-10-09T18:31:19.815Z,77.84
2022-10-09T18:33:47.979Z,77.83
2022-10-09T18:36:20.348Z,78.11
2022-10-09T18:38:49.124Z,77.81
2022-10-09T18:41:18.437Z,78.11
2022-10-09T18:43:47.418Z,78.18
2022-10-09T18:46:15.967Z,77.98
2022-10-09T18:48:44.405Z,77.99
2022-10-09T18:51:15.844Z,77.87
2022-10-09T18:53:49.678Z,77.92
2022-10-09T18:56:19.883Z,78.23
2022-10-09T18:58:50.053Z,78.02
2022-10-09T19:01:17.798Z,78.22
2022-10-09T19:03:49.090Z,78.30
2022-10-09T19:06:18.210Z,78.19
2022-10-09T19:08:47.824Z,78.16
2022-10-09T19:11:15.532Z,78.29
2022-10-09T19:13:44.274Z,78.39
2022-10-09T19:16:12.303Z,78.83
2022-10-09T19:18:40.414Z,79.07
2022-10-09T19:21:12.652Z,78.91
2022-10-09T19:23:40.407Z,78.83
2022-10-09T19:26:09.477Z,79.08
2022-10-09T19:28:38.885Z,79.15
2022-10-09T19:31:07.675Z,79.07
2022-10-09T19:33:36.374Z,79.21
2022-10-09T19:36:04.713Z,79.20
2022-10-09T19:38:32.920Z,79.27
2022-10-09T19:41:04.541Z,79.20
2022-10-09T19:43:34.759Z,79.22
2022-10-09T19:46:04.776Z,79.31
2022-10-09T19:48:33.032Z,79.25
2022-10-09T19:51:00.727Z,79.23
2022-10-09T19:53:28.625Z,79.25
2022-10-09T19:55:56.310Z,79.31
2022-10-09T19:58:24.480Z,79.55
2022-10-09T20:00:53.720Z,79.12
2022-10-09T20:03:21.599Z,78.84
2022-10-09T20:05:49.290Z,78.93
2022-10-09T20:08:17.033Z,79.04
2022-10-09T20:10:44.811Z,79.04
2022-10-09T20:13:14.363Z,79.10
2022-10-09T20:15:42.903Z,79.36
2022-10-09T20:18:12.022Z,79.69
2022-10-09T20:20:40.402Z,79.66
2022-10-09T20:23:08.225Z,79.83
2022-10-09T20:25:35.943Z,79.94
2022-10-09T20:28:03.707Z,79.65
2022-10-09T20:30:31.701Z,79.03
2022-10-09T20:32:59.764Z,79.14
2022-10-09T20:35:29.125Z,79.32
2022-10-09T20:37:56.830Z,79.34
2022-10-09T20:40:24.507Z,79.48
2022-10-09T20:42:52.685Z,79.42
2022-10-09T20:45:20.793Z,79.77
2022-10-09T20:47:49.970Z,79.25
2022-10-09T20:50:17.677Z,79.00
2022-10-09T20:52:47.183Z,79.00
2022-10-09T20:55:15.061Z,78.78
2022-10-09T20:57:42.783Z,79.15
2022-10-09T21:00:11.850Z,79.36
2022-10-09T21:02:39.889Z,79.34
2022-10-09T21:05:08.390Z,79.36
2022-10-09T21:07:36.395Z,79.49
2022-10-09T21:10:06.185Z,79.57
2022-10-09T21:12:34.243Z,80.71
2022-10-09T21:15:01.935Z,81.49
2022-10-09T21:17:29.646Z,81.58
2022-10-09T21:19:57.994Z,81.87
2022-10-09T21:22:26.415Z,82.12
2022-10-09T21:24:54.140Z,82.44
2022-10-09T21:27:23.542Z,82.32
2022-10-09T21:29:51.209Z,82.42
2022-10-09T21:32:19.248Z,82.36
2022-10-09T21:34:47.114Z,82.54
2022-10-09T21:37:21.575Z,82.51
2022-10-09T21:39:49.939Z,82.45
2022-10-09T21:42:17.983Z,82.51
2022-10-09T21:44:47.038Z,82.52
2022-10-09T21:47:18.424Z,82.71
2022-10-09T21:49:46.133Z,82.69
2022-10-09T21:52:14.650Z,82.89
2022-10-09T21:54:42.313Z,83.04
2022-10-09T21:57:10.039Z,83.20
2022-10-09T21:59:38.324Z,83.34
2022-10-09T22:02:07.407Z,83.42
2022-10-09T22:04:35.577Z,83.42
2022-10-09T22:07:03.254Z,83.65
2022-10-09T22:09:30.975Z,83.45
2022-10-09T22:12:00.246Z,83.75
2022-10-09T22:14:28.009Z,84.03
2022-10-09T22:16:55.696Z,84.17
2022-10-09T22:19:24.726Z,84.30
2022-10-09T22:21:52.673Z,84.23
2022-10-09T22:24:23.814Z,83.86
2022-10-09T22:26:55.437Z,84.52
2022-10-09T22:29:23.639Z,84.35
2022-10-09T22:31:51.343Z,84.62
2022-10-09T22:34:19.357Z,84.48
2022-10-09T22:36:48.419Z,84.66
2022-10-09T22:39:16.453Z,84.45
2022-10-09T22:41:44.175Z,84.50
2022-10-09T22:44:13.437Z,84.50
2022-10-09T22:46:44.363Z,84.54
2022-10-09T22:49:14.816Z,84.75
2022-10-09T22:51:43.198Z,84.55
2022-10-09T22:54:13.757Z,84.77
2022-10-09T22:56:45.258Z,84.74
2022-10-09T22:59:15.709Z,84.73
2022-10-09T23:01:48.243Z,84.64
2022-10-09T23:04:18.114Z,84.76
2022-10-09T23:06:46.758Z,84.81
2022-10-09T23:09:16.385Z,84.67
2022-10-09T23:11:44.630Z,84.88
2022-10-09T23:14:13.514Z,84.75
2022-10-09T23:16:41.508Z,84.83
2022-10-09T23:19:10.146Z,84.78
2022-10-09T23:21:39.285Z,84.83
2022-10-09T23:24:08.134Z,84.86
2022-10-09T23:26:38.199Z,85.08
2022-10-09T23:29:08.489Z,85.08
2022-10-09T23:31:36.962Z,84.99
2022-10-09T23:34:05.846Z,84.98
2022-10-09T23:36:33.948Z,84.90
2022-10-09T23:39:03.199Z,85.27
2022-10-09T23:41:31.386Z,85.02
2022-10-09T23:44:00.502Z,84.99
2022-10-09T23:46:30.166Z,85.14
2022-10-09T23:48:58.617Z,85.29
2022-10-09T23:51:27.791Z,85.06
2022-10-09T23:53:56.767Z,85.14
2022-10-09T23:56:26.549Z,85.00
2022-10-09T23:58:56.389Z,85.13
